메인 페이지
METAR-TAF:

METAR-TAF

공항 :

히스로 공항

런던 / 히드로, 잉글랜드

위도: 51-29N, 경도: 000-27W, 고도: 24m

현재 날씨관측

예보는 44분 전, 17:20시(UTC)에 발표되었습니다.
북북서5kt서북서풍과 북북동풍을 오가는
온도 23°C
습도 50%
기압 1020 hPa
시정 10km 이상
고도 4600ft 상공 구름 조금

METAR: EGLL 231720Z AUTO 34005KT 300V030 9999 FEW046 23/12 Q1020

시각: 19:04 (18:04 UTC)

예보

예보는 1 시간 4분 전, 17:00시(UTC)에 발표되었습니다.
예보 대상 시간: 23일 18시부터 24일 24시까지 (UTC)
북북서10kt
시정 10km 이상
고도 4500ft 상공 구름 보통
전환 중
23일 18시부터 23일 21시까지 (UTC)
4kt
전환 중
24일 08시부터 24일 11시까지 (UTC)
10kt

TAF: EGLL 231700Z 2318/2424 33010KT 9999 SCT045 BECMG 2318/2321 08004KT BECMG 2408/2411 19010KT

4,000개 이상의 공항 관측 자료 및 예보 (METAR 및 TAF 보고).

지도상에서 검색 가능한 기상관측소가 노란 점과 빨간 점으로 표시되어 있습니다.

기상관측소 명을 보려면 표시 위로 마우스를 이동하세요.

날씨 관측과 예보를 보려면 클릭하세요.

지도 변경 : 확대하려면 엑스 표시가 있는 녹색 버튼, 축소하려면 빼기 표시가 있는 녹색 버튼, 다음 페이지의 지도를 보려면 녹색 화살표를 클릭하세요.


METAR-TAF: